El Paso, TX (88549)

10:26 PM MDT on September 15, 2014 (GMT -0600)
Shock | Change Station
CLOSE
Current Station
Personal Weather Station
Location: El Paso, TX
Elevation: 3924 ft
Nearby Weather Stations
Active Advisory: Flash Flood Watch

Elev 3924 ft 31.76 °N, 106.33 °W | Updated 6 minutes ago

Overcast
Overcast
72.5 °F
Feels Like 75 °F
N
5.8
Wind Variable Wind from ENE

Today
High -- | Low -- °F
--% Chance of Precip.
Yesterday
High -- | Low -- °F
Precip. -- in
6:49 AM 7:11 PM
Waning Gibbous, 49% visible
Pressure 30.01 in
Visibility 10.0 miles
Clouds Overcast 8000 ft
Heat Index 75 °F
Dew Point 62 °F
Humidity 71%
Rainfall 0.00 in
Snow Depth Not available.
UV 0 out of 12
Pollen 8.60 out of 12
Air Quality Not available.
Flu Activity Not available.
METAR KELP 160351Z 06004KT 10SM OVC080 23/17 A3019 RMK AO2 SLP160 T02280172

More Conditions Fewer Conditions

Pressure 30.01 in
Visibility 10.0 miles
Clouds Overcast 8000 ft
Heat Index 75 °F
Dew Point 62 °F
Humidity 71%
Rainfall 0.00 in
Snow Depth Not available.
UV 0 out of 12
Pollen 8.60 out of 12
Air Quality Not available.
Flu Activity Not available.
METAR KELP 160351Z 06004KT 10SM OVC080 23/17 A3019 RMK AO2 SLP160 T02280172

More Conditions Fewer Conditions

10-Day Weather Forecast

Almanac

Astronomy

Sep. 15, 2014 Rise Set
Actual Time 6:49 AM MDT 7:11 PM MDT
Civil Twilight 6:24 AM MDT 7:35 PM MDT
Nautical Twilight 5:56 AM MDT 8:04 PM MDT
Astronomical Twilight 5:27 AM MDT 8:32 PM MDT
Moon No Moon Rise 1:30 PM MDT (9/15)
Length of Visible Light 13h 10m
Length of Day
12h 21m
Tomorrow will be 1m 55s shorter.
Waning Gibbous, 49% of the Moon is Illuminated
Sep 16
Waning Gibbous
Sep 24
New
Oct 1
First Quarter
Oct 8
Full
Oct 15
Last Quarter

Today's Extremes

State Highs State Lows

Community

WunderPhotos

Upload Photos

1,753,702 photos uploaded!

Nearby

Snow Depth

Station Depth Elevation
No new snow has been reported.

Earthquake Activity

City Distance Mag. Time & Date
No recent earthquake activity has been reported nearby.
Minimum magnitude displayed is 2.5.

Coastal Water Temperatures

Place Temperature
No Stations Reporting

Nearby Weather Stations